Time;durP1;ratioP1;P1;durP2;ratioP2;P2;SDS_P1;SDS_P2;PMS_P1;PMS_P2;Temp;Humidity;BMP_temperature;BMP_pressure;BME280_temperature;BME280_humidity;BME280_pressure;Samples;Min_cycle;Max_cycle;Signal;HPM_P1;HPM_P2
2023/03/12 00:00:31;;;;;;;9.85;5.75;;;-1.20;99.90;;;;;;4937165;28;20035;-41
2023/03/12 00:02:57;;;;;;;7.82;5.05;;;-1.10;99.90;;;;;;4938200;28;20544;-41
2023/03/12 00:05:24;;;;;;;12.32;5.90;;;-1.20;99.90;;;;;;4936896;28;20243;-41
2023/03/12 00:07:51;;;;;;;6.22;4.00;;;-1.20;99.90;;;;;;4940454;28;20121;-41
2023/03/12 00:10:18;;;;;;;4.13;3.78;;;-1.20;99.90;;;;;;4934398;28;20034;-41
2023/03/12 00:12:43;;;;;;;6.15;4.05;;;-1.20;99.90;;;;;;4937233;28;20384;-41
2023/03/12 00:15:09;;;;;;;6.85;4.40;;;-1.20;99.90;;;;;;4940632;28;20272;-41
2023/03/12 00:17:35;;;;;;;7.25;4.75;;;-1.20;99.90;;;;;;4939402;28;20043;-41
2023/03/12 00:20:02;;;;;;;6.97;4.47;;;-1.30;99.90;;;;;;4937648;28;20038;-41
2023/03/12 00:22:27;;;;;;;10.02;4.78;;;-1.30;99.90;;;;;;4940004;28;20436;-41
2023/03/12 00:24:55;;;;;;;7.00;4.07;;;-1.40;99.90;;;;;;4938071;28;20413;-41
2023/03/12 00:27:21;;;;;;;12.63;4.63;;;-1.40;99.90;;;;;;4939978;28;20055;-41
2023/03/12 00:29:46;;;;;;;12.63;5.80;;;-1.40;99.90;;;;;;4940309;28;20106;-42
2023/03/12 00:32:12;;;;;;;5.50;4.47;;;-1.40;99.90;;;;;;4937091;28;20081;-41
2023/03/12 00:34:38;;;;;;;9.68;4.53;;;-1.50;99.90;;;;;;4955662;28;20031;-41
2023/03/12 00:37:04;;;;;;;5.70;4.78;;;-1.60;99.90;;;;;;4942994;28;20065;-41
2023/03/12 00:39:30;;;;;;;6.72;3.83;;;-1.70;99.90;;;;;;4947061;28;20062;-41
2023/03/12 00:41:56;;;;;;;5.95;4.03;;;-1.70;99.90;;;;;;4944354;28;20082;-41
2023/03/12 00:44:21;;;;;;;6.43;4.63;;;-1.70;99.90;;;;;;4938883;28;20055;-41
2023/03/12 00:46:47;;;;;;;7.10;4.22;;;-1.80;99.90;;;;;;4944092;28;21503;-41
2023/03/12 00:49:12;;;;;;;6.95;3.33;;;-1.90;99.90;;;;;;4940726;28;20020;-41
2023/03/12 00:51:38;;;;;;;3.80;3.45;;;-1.90;99.90;;;;;;4944904;28;20054;-41
2023/03/12 00:54:04;;;;;;;4.97;3.83;;;-2.00;99.90;;;;;;4946668;28;20058;-41
2023/03/12 00:56:30;;;;;;;6.00;3.95;;;-2.10;99.90;;;;;;4945093;28;20043;-41
2023/03/12 00:58:56;;;;;;;7.30;3.47;;;-2.10;99.90;;;;;;4946309;28;20027;-41
2023/03/12 01:01:22;;;;;;;4.78;3.08;;;-2.00;99.90;;;;;;4942142;28;20035;-41
2023/03/12 01:03:50;;;;;;;5.45;3.20;;;-2.10;99.90;;;;;;4945926;28;20035;-42
2023/03/12 01:06:15;;;;;;;6.95;3.75;;;-2.10;99.90;;;;;;4941633;28;20338;-41
2023/03/12 01:08:41;;;;;;;3.22;2.72;;;-2.00;99.90;;;;;;4946644;28;20046;-41
2023/03/12 01:11:07;;;;;;;3.22;2.97;;;-2.00;99.90;;;;;;4944274;28;20039;-41
2023/03/12 01:13:33;;;;;;;5.20;3.70;;;-2.00;99.90;;;;;;4941056;28;20068;-41
2023/03/12 01:15:58;;;;;;;5.03;3.47;;;-2.00;99.90;;;;;;4943956;28;20054;-41
2023/03/12 01:18:24;;;;;;;9.05;3.25;;;-2.00;99.90;;;;;;4944672;28;20045;-41
2023/03/12 01:20:49;;;;;;;3.33;3.08;;;-2.00;99.90;;;;;;4944458;28;20031;-41
2023/03/12 01:23:15;;;;;;;6.65;4.45;;;-2.10;99.90;;;;;;4944798;28;20093;-41
2023/03/12 01:25:41;;;;;;;4.15;3.75;;;-2.10;99.90;;;;;;4945709;28;20039;-41
2023/03/12 01:28:07;;;;;;;4.40;3.53;;;-2.20;99.90;;;;;;4947866;28;20031;-42
2023/03/12 01:30:32;;;;;;;4.00;3.67;;;-2.20;99.90;;;;;;4943094;28;20042;-40
2023/03/12 01:32:58;;;;;;;3.05;2.78;;;-2.30;99.90;;;;;;4944798;28;20030;-41
2023/03/12 01:35:24;;;;;;;8.10;3.00;;;-2.30;99.90;;;;;;4942304;28;20054;-41
2023/03/12 01:37:51;;;;;;;3.30;3.00;;;-2.40;99.90;;;;;;4946219;28;20318;-41
2023/03/12 01:40:20;;;;;;;2.65;2.45;;;-2.50;99.90;;;;;;4943716;28;20061;-41
2023/03/12 01:42:53;;;;;;;3.55;3.25;;;-2.50;99.90;;;;;;4944261;28;20034;-41
2023/03/12 01:45:56;;;;;;;2.00;1.90;;;-2.50;99.90;;;;;;4944239;28;20074;-41
2023/03/12 01:48:22;;;;;;;3.10;2.80;;;-2.70;99.90;;;;;;4943219;28;20026;-41
2023/03/12 01:50:48;;;;;;;4.57;3.38;;;-2.70;99.90;;;;;;4944892;28;20047;-41
2023/03/12 01:53:14;;;;;;;3.80;2.78;;;-2.60;99.90;;;;;;4940743;28;20027;-41
2023/03/12 01:55:40;;;;;;;2.22;2.05;;;-2.70;99.90;;;;;;4941365;28;20030;-41
2023/03/12 01:58:06;;;;;;;4.65;2.35;;;-2.60;99.90;;;;;;4938531;28;20042;-41
2023/03/12 02:00:32;;;;;;;3.17;2.90;;;-2.60;99.90;;;;;;4940500;28;20432;-42
2023/03/12 02:03:03;;;;;;;2.85;2.25;;;-2.50;99.90;;;;;;4946502;28;20034;-41
2023/03/12 02:05:47;;;;;;;4.20;2.42;;;-2.50;99.90;;;;;;4945885;28;20091;-41
2023/03/12 02:08:16;;;;;;;8.98;2.63;;;-2.40;99.90;;;;;;4947233;28;20556;-41
2023/03/12 02:10:42;;;;;;;2.13;1.90;;;-2.40;99.90;;;;;;4949128;28;20043;-41
2023/03/12 02:13:08;;;;;;;2.90;2.63;;;-2.40;99.90;;;;;;4947349;28;20101;-41
2023/03/12 02:15:34;;;;;;;2.20;2.08;;;-2.50;99.90;;;;;;4979438;28;20042;-41
2023/03/12 02:18:07;;;;;;;3.40;2.10;;;-2.50;99.90;;;;;;4948355;28;20034;-41
2023/03/12 02:20:44;;;;;;;3.08;2.83;;;-2.60;99.90;;;;;;4948095;28;20037;-41
2023/03/12 02:23:20;;;;;;;3.45;2.85;;;-2.70;99.90;;;;;;4948680;28;20529;-41
2023/03/12 02:25:49;;;;;;;5.43;2.58;;;-2.80;99.90;;;;;;4949654;28;20034;-41
2023/03/12 02:28:18;;;;;;;2.35;2.25;;;-2.90;99.90;;;;;;4946149;28;20374;-41
2023/03/12 02:30:47;;;;;;;3.28;2.97;;;-2.90;99.90;;;;;;4948316;28;20479;-41
2023/03/12 02:33:16;;;;;;;2.53;2.42;;;-2.90;99.90;;;;;;4945263;28;20035;-41
2023/03/12 02:35:44;;;;;;;3.05;2.80;;;-2.90;99.90;;;;;;4949797;28;20465;-41
2023/03/12 02:38:30;;;;;;;3.53;2.72;;;-2.90;99.90;;;;;;4948505;28;20030;-41
2023/03/12 02:40:59;;;;;;;2.50;2.25;;;-2.80;99.90;;;;;;4940925;28;20041;-41
2023/03/12 02:43:25;;;;;;;3.88;3.22;;;-2.80;99.90;;;;;;4947159;28;20027;-41
2023/03/12 02:45:50;;;;;;;2.28;2.15;;;-2.70;99.90;;;;;;4943061;28;20420;-41
2023/03/12 02:48:16;;;;;;;2.63;2.38;;;-2.70;99.90;;;;;;4955047;28;20408;-41
2023/03/12 02:50:41;;;;;;;2.38;2.17;;;-2.60;99.90;;;;;;4961218;28;20043;-41
2023/03/12 02:53:07;;;;;;;1.73;1.63;;;-2.60;99.90;;;;;;4963469;28;20137;-41
2023/03/12 02:55:33;;;;;;;2.78;2.20;;;-2.60;99.90;;;;;;4960186;28;20034;-41
2023/03/12 02:57:58;;;;;;;3.35;2.70;;;-2.50;99.90;;;;;;4966492;28;20123;-41
2023/03/12 03:00:24;;;;;;;3.38;3.13;;;-2.60;99.90;;;;;;4954923;28;20035;-41
2023/03/12 03:02:49;;;;;;;2.90;2.70;;;-2.60;99.90;;;;;;4967855;28;20039;-41
2023/03/12 03:05:15;;;;;;;3.10;2.78;;;-2.50;99.90;;;;;;4959258;28;20436;-41
2023/03/12 03:07:41;;;;;;;2.72;2.53;;;-2.40;99.90;;;;;;4959154;28;20337;-41
2023/03/12 03:10:07;;;;;;;2.50;2.30;;;-2.40;99.90;;;;;;4961767;28;20031;-41
2023/03/12 03:12:34;;;;;;;1.58;1.48;;;-2.40;99.90;;;;;;4957278;28;20020;-41
2023/03/12 03:15:00;;;;;;;3.10;2.47;;;-2.50;99.90;;;;;;4957982;28;20039;-42
2023/03/12 03:17:26;;;;;;;4.95;2.47;;;-2.50;99.90;;;;;;4958654;28;20397;-41
2023/03/12 03:19:52;;;;;;;2.63;2.13;;;-2.50;99.90;;;;;;4961720;28;20035;-41
2023/03/12 03:22:20;;;;;;;6.40;2.83;;;-2.60;99.90;;;;;;4970057;28;20030;-41
2023/03/12 03:24:45;;;;;;;2.45;2.25;;;-2.60;99.90;;;;;;4963328;28;20118;-41
2023/03/12 03:27:12;;;;;;;2.75;2.55;;;-2.50;99.90;;;;;;4963090;28;20114;-41
2023/03/12 03:29:38;;;;;;;4.00;2.40;;;-2.50;99.90;;;;;;4964236;28;20053;-41
2023/03/12 03:32:04;;;;;;;3.00;2.80;;;-2.40;99.90;;;;;;4963820;28;20031;-41
2023/03/12 03:34:30;;;;;;;1.65;1.65;;;-2.40;99.90;;;;;;4968279;28;20435;-41
2023/03/12 03:36:56;;;;;;;1.95;1.90;;;-2.30;99.90;;;;;;4963174;28;20035;-41
2023/03/12 03:39:22;;;;;;;4.18;2.17;;;-2.30;99.90;;;;;;4966045;28;20035;-41
2023/03/12 03:41:47;;;;;;;3.20;2.78;;;-2.30;99.90;;;;;;4958490;28;20026;-41
2023/03/12 03:44:13;;;;;;;3.08;2.00;;;-2.30;99.90;;;;;;4958884;28;20070;-41
2023/03/12 03:46:39;;;;;;;2.08;1.98;;;-2.20;99.90;;;;;;4963277;28;20050;-41
2023/03/12 03:49:05;;;;;;;2.38;1.98;;;-2.20;99.90;;;;;;4960115;28;20070;-41
2023/03/12 03:51:31;;;;;;;3.53;2.47;;;-2.10;99.90;;;;;;4961743;28;20102;-42
2023/03/12 03:53:59;;;;;;;1.80;1.70;;;-2.10;99.90;;;;;;4955781;28;20027;-41
2023/03/12 03:56:24;;;;;;;3.08;2.83;;;-2.10;99.90;;;;;;4960436;28;20039;-41
2023/03/12 03:58:50;;;;;;;2.10;1.90;;;-2.10;99.90;;;;;;4963768;28;20043;-41
2023/03/12 04:01:16;;;;;;;3.10;2.85;;;-2.00;99.90;;;;;;4956800;28;20093;-41
2023/03/12 04:03:42;;;;;;;3.15;2.88;;;-2.00;99.90;;;;;;4958571;28;20031;-41
2023/03/12 04:06:08;;;;;;;2.78;2.53;;;-2.00;99.90;;;;;;4962670;28;20042;-41
2023/03/12 04:08:35;;;;;;;3.63;2.50;;;-1.90;99.90;;;;;;4967141;28;20026;-41
2023/03/12 04:11:10;;;;;;;5.15;3.75;;;-1.90;99.90;;;;;;4960557;28;20165;-41
2023/03/12 04:13:36;;;;;;;2.35;2.17;;;-1.90;99.90;;;;;;4960684;28;20076;-46
2023/03/12 04:16:01;;;;;;;2.65;2.55;;;-1.80;99.90;;;;;;4954933;28;20425;-41
2023/03/12 04:18:27;;;;;;;3.97;2.85;;;-1.80;99.90;;;;;;4960868;28;20488;-41
2023/03/12 04:20:53;;;;;;;3.78;3.42;;;-1.80;99.90;;;;;;4959240;28;20130;-41
2023/03/12 04:23:18;;;;;;;4.15;3.25;;;-1.70;99.90;;;;;;4955068;28;20477;-41
2023/03/12 04:25:44;;;;;;;3.13;2.92;;;-1.70;99.90;;;;;;4963068;28;20074;-41
2023/03/12 04:28:10;;;;;;;4.03;2.42;;;-1.60;99.90;;;;;;4956741;28;20615;-41
2023/03/12 04:30:37;;;;;;;2.22;2.03;;;-1.60;99.90;;;;;;4958589;28;20023;-41
2023/03/12 04:33:06;;;;;;;4.03;2.88;;;-1.60;99.90;;;;;;4966628;28;20031;-41
2023/03/12 04:35:32;;;;;;;3.88;2.97;;;-1.60;99.90;;;;;;4961816;28;20438;-42
2023/03/12 04:38:00;;;;;;;2.35;2.22;;;-1.50;99.90;;;;;;4958929;28;20027;-41
2023/03/12 04:40:25;;;;;;;4.90;2.13;;;-1.50;99.90;;;;;;4959196;28;20032;-41
2023/03/12 04:42:51;;;;;;;2.17;1.83;;;-1.50;99.90;;;;;;4960526;28;20042;-41
2023/03/12 04:45:17;;;;;;;5.45;3.55;;;-1.50;99.90;;;;;;4954804;28;20102;-41
2023/03/12 04:47:42;;;;;;;3.33;3.05;;;-1.50;99.90;;;;;;4955129;28;20038;-41
2023/03/12 04:50:09;;;;;;;2.78;2.65;;;-1.50;99.90;;;;;;4955904;28;20058;-41
2023/03/12 04:52:34;;;;;;;2.80;2.50;;;-1.50;99.90;;;;;;4957171;28;20072;-41
2023/03/12 04:55:01;;;;;;;3.33;3.08;;;-1.50;99.90;;;;;;4960730;28;20970;-41
2023/03/12 04:57:27;;;;;;;2.97;2.78;;;-1.40;99.90;;;;;;4964355;28;20031;-41
2023/03/12 04:59:52;;;;;;;2.80;2.53;;;-1.40;99.90;;;;;;4960180;28;20031;-41
2023/03/12 05:02:18;;;;;;;5.15;3.50;;;-1.30;99.90;;;;;;4954839;28;20047;-41
2023/03/12 05:04:44;;;;;;;3.60;2.88;;;-1.30;99.90;;;;;;4966332;28;20070;-41
2023/03/12 05:07:09;;;;;;;3.55;2.58;;;-1.40;99.90;;;;;;4959268;28;20301;-41
2023/03/12 05:09:35;;;;;;;3.33;2.92;;;-1.40;99.90;;;;;;4965004;28;20051;-41
2023/03/12 05:12:01;;;;;;;2.53;2.30;;;-1.40;99.90;;;;;;4959100;28;20027;-41
2023/03/12 05:14:26;;;;;;;3.70;2.35;;;-1.30;99.90;;;;;;4959126;28;20030;-41
2023/03/12 05:16:52;;;;;;;4.78;3.10;;;-1.30;99.90;;;;;;4958233;28;20121;-41
2023/03/12 05:19:18;;;;;;;3.28;2.97;;;-1.30;99.90;;;;;;4962543;28;20042;-41
2023/03/12 05:21:43;;;;;;;5.20;2.88;;;-1.30;99.90;;;;;;4959199;28;20058;-41
2023/03/12 05:24:10;;;;;;;2.65;2.45;;;-1.30;99.90;;;;;;4959828;28;20038;-41
2023/03/12 05:26:36;;;;;;;2.80;2.58;;;-1.30;99.90;;;;;;4953537;28;20034;-41
2023/03/12 05:29:03;;;;;;;5.88;3.72;;;-1.30;99.90;;;;;;4953547;28;20030;-41
2023/03/12 05:31:31;;;;;;;5.50;2.85;;;-1.30;99.90;;;;;;4960824;28;20034;-41
2023/03/12 05:33:58;;;;;;;3.55;3.25;;;-1.30;99.90;;;;;;4960942;28;20114;-41
2023/03/12 05:36:23;;;;;;;2.33;2.15;;;-1.20;99.90;;;;;;4961132;28;20107;-41
2023/03/12 05:38:49;;;;;;;2.53;2.33;;;-1.20;99.90;;;;;;4961903;28;20119;-41
2023/03/12 05:41:21;;;;;;;3.92;2.67;;;-1.10;99.90;;;;;;4959178;28;20019;-41
2023/03/12 05:43:48;;;;;;;3.10;2.85;;;-1.10;99.90;;;;;;4965837;28;20722;-41
2023/03/12 05:46:14;;;;;;;4.25;2.83;;;-1.10;99.90;;;;;;4956194;28;20054;-41
2023/03/12 05:48:40;;;;;;;2.88;2.53;;;-1.00;99.90;;;;;;4972238;28;20122;-41
2023/03/12 05:51:05;;;;;;;3.42;3.13;;;-1.00;99.90;;;;;;4953776;28;20047;-41
2023/03/12 05:53:31;;;;;;;3.40;2.90;;;-1.00;99.90;;;;;;4963424;28;20647;-41
2023/03/12 05:56:04;;;;;;;4.70;3.20;;;-1.00;99.90;;;;;;4973281;28;20034;-41
2023/03/12 05:58:31;;;;;;;3.10;2.50;;;-0.90;99.90;;;;;;4960279;28;20506;-41
2023/03/12 06:00:57;;;;;;;3.42;2.85;;;-0.90;99.90;;;;;;4958724;28;20054;-41
2023/03/12 06:03:22;;;;;;;4.22;2.97;;;-0.80;99.90;;;;;;4959866;28;20027;-41
2023/03/12 06:05:49;;;;;;;3.42;2.85;;;-0.90;99.90;;;;;;4958062;28;20043;-41
2023/03/12 06:08:15;;;;;;;4.55;3.33;;;-0.80;99.90;;;;;;4958308;28;20102;-41
2023/03/12 06:10:40;;;;;;;3.30;2.97;;;-0.80;99.90;;;;;;4961276;28;20114;-41
2023/03/12 06:13:07;;;;;;;3.53;2.80;;;-0.70;99.90;;;;;;4992854;28;20068;-41
2023/03/12 06:15:33;;;;;;;5.53;3.40;;;-0.70;99.90;;;;;;4957276;28;20389;-41
2023/03/12 06:17:58;;;;;;;4.75;3.83;;;-0.60;99.90;;;;;;4960112;28;20031;-41
2023/03/12 06:20:24;;;;;;;4.82;3.75;;;-0.60;99.90;;;;;;4956501;28;20027;-41
2023/03/12 06:22:50;;;;;;;6.05;3.38;;;-0.50;99.90;;;;;;4954956;28;20105;-41
2023/03/12 06:25:15;;;;;;;4.97;3.53;;;-0.50;99.90;;;;;;4952114;28;20035;-40
2023/03/12 06:27:41;;;;;;;7.82;4.18;;;-0.50;99.90;;;;;;4957099;28;20031;-40
2023/03/12 06:30:08;;;;;;;3.80;3.10;;;-0.40;99.90;;;;;;4965840;28;20033;-40
2023/03/12 06:32:33;;;;;;;3.88;3.28;;;-0.40;99.90;;;;;;4961258;28;20078;-40
2023/03/12 06:34:59;;;;;;;4.18;3.80;;;-0.40;99.90;;;;;;4964875;28;20042;-40
2023/03/12 06:37:26;;;;;;;7.25;3.65;;;-0.30;99.90;;;;;;4957902;28;20062;-40
2023/03/12 06:39:53;;;;;;;4.75;4.32;;;-0.30;99.90;;;;;;4954485;28;20450;-40
2023/03/12 06:42:19;;;;;;;11.90;4.22;;;-0.30;99.90;;;;;;4955379;28;20034;-40
2023/03/12 06:44:45;;;;;;;13.45;5.93;;;-0.30;99.90;;;;;;4961832;28;20050;-40
2023/03/12 06:47:11;;;;;;;7.93;4.95;;;-0.20;99.90;;;;;;4951633;28;20035;-40
2023/03/12 06:49:37;;;;;;;8.82;5.55;;;-0.20;99.90;;;;;;4961660;28;20051;-40
2023/03/12 06:52:04;;;;;;;8.60;5.18;;;-0.10;99.90;;;;;;4961718;28;20031;-41
2023/03/12 06:54:30;;;;;;;7.75;5.50;;;0.00;99.90;;;;;;4965374;28;20034;-40
2023/03/12 06:56:57;;;;;;;10.35;6.25;;;0.10;99.90;;;;;;4964979;28;20401;-40
2023/03/12 06:59:23;;;;;;;9.02;5.03;;;0.20;99.90;;;;;;4967078;28;20030;-40
2023/03/12 07:01:49;;;;;;;9.43;5.55;;;0.20;99.90;;;;;;4961786;28;20417;-40
2023/03/12 07:04:15;;;;;;;7.00;4.75;;;0.30;99.90;;;;;;4962469;28;20028;-40
2023/03/12 07:06:41;;;;;;;8.93;5.78;;;0.30;99.90;;;;;;4961492;28;20480;-40
2023/03/12 07:09:06;;;;;;;10.80;5.55;;;0.30;99.90;;;;;;4965043;28;20034;-40
2023/03/12 07:11:32;;;;;;;6.70;4.43;;;0.40;99.90;;;;;;4965108;28;20500;-40
2023/03/12 07:13:58;;;;;;;9.40;5.07;;;0.50;99.90;;;;;;4961284;28;20058;-41
2023/03/12 07:16:23;;;;;;;8.35;5.13;;;0.50;99.90;;;;;;4962471;28;20041;-41
2023/03/12 07:18:49;;;;;;;7.43;5.57;;;0.60;99.90;;;;;;4966304;28;20101;-41
2023/03/12 07:21:21;;;;;;;10.02;4.72;;;0.60;99.90;;;;;;4967827;28;20035;-40
2023/03/12 07:23:48;;;;;;;7.55;4.63;;;0.70;99.90;;;;;;4972832;28;20039;-41
2023/03/12 07:26:13;;;;;;;9.02;5.43;;;0.70;99.90;;;;;;4962520;28;20109;-41
2023/03/12 07:28:39;;;;;;;7.60;5.30;;;0.80;99.90;;;;;;4968107;28;20154;-40
2023/03/12 07:31:04;;;;;;;8.27;4.97;;;0.80;99.90;;;;;;4955270;28;20070;-41
2023/03/12 07:33:30;;;;;;;7.40;6.10;;;0.80;99.90;;;;;;4962349;28;20034;-40
2023/03/12 07:35:56;;;;;;;8.75;5.78;;;1.00;99.90;;;;;;4958771;28;20497;-41
2023/03/12 07:38:21;;;;;;;14.80;6.78;;;1.10;99.90;;;;;;4965092;28;20031;-41
2023/03/12 07:40:55;;;;;;;17.75;8.02;;;1.20;99.90;;;;;;4957588;28;20035;-41
2023/03/12 07:43:21;;;;;;;14.95;7.97;;;1.40;99.90;;;;;;4969238;28;20042;-40
2023/03/12 07:45:46;;;;;;;15.80;8.48;;;1.60;99.90;;;;;;4962176;28;20031;-41
2023/03/12 07:48:12;;;;;;;17.75;8.63;;;1.70;99.90;;;;;;4958977;28;20016;-41
2023/03/12 07:50:38;;;;;;;13.55;7.22;;;1.80;99.90;;;;;;4954799;28;20380;-41
2023/03/12 07:53:04;;;;;;;15.32;7.60;;;2.00;99.90;;;;;;4960717;28;20038;-41
2023/03/12 07:55:32;;;;;;;11.27;6.90;;;2.10;99.90;;;;;;4965692;28;20122;-40
2023/03/12 07:57:58;;;;;;;12.52;7.35;;;2.20;99.90;;;;;;4960198;28;20039;-41
2023/03/12 08:00:25;;;;;;;10.63;6.15;;;2.30;99.90;;;;;;4965653;28;20038;-40
2023/03/12 08:02:51;;;;;;;7.10;4.22;;;2.50;99.90;;;;;;4963458;28;20042;-41
2023/03/12 08:05:16;;;;;;;12.65;5.78;;;2.60;99.90;;;;;;4960926;28;20039;-40
2023/03/12 08:07:42;;;;;;;10.48;5.75;;;2.60;99.90;;;;;;4966133;28;20034;-41
2023/03/12 08:10:10;;;;;;;6.40;4.53;;;2.70;99.90;;;;;;4961343;28;20516;-41
2023/03/12 08:12:36;;;;;;;6.78;4.75;;;2.70;99.90;;;;;;4958947;28;20027;-41
2023/03/12 08:15:04;;;;;;;11.32;6.13;;;2.70;99.90;;;;;;4964411;28;20031;-41
2023/03/12 08:17:31;;;;;;;8.55;5.50;;;2.60;99.90;;;;;;4958066;28;20027;-41
2023/03/12 08:19:57;;;;;;;8.30;5.68;;;2.70;99.90;;;;;;4962772;28;20390;-41
2023/03/12 08:22:23;;;;;;;9.77;6.05;;;2.70;99.90;;;;;;4959328;28;20042;-41
2023/03/12 08:24:48;;;;;;;10.23;5.95;;;2.80;99.90;;;;;;4955121;28;20500;-41
2023/03/12 08:27:14;;;;;;;8.60;5.95;;;2.80;99.90;;;;;;4956367;28;20027;-41
2023/03/12 08:29:40;;;;;;;12.18;6.55;;;2.90;99.90;;;;;;4956825;28;20408;-41
2023/03/12 08:32:07;;;;;;;10.63;6.32;;;2.80;99.90;;;;;;4964152;28;20157;-41
2023/03/12 08:34:33;;;;;;;13.07;7.18;;;2.80;99.90;;;;;;4960937;28;20529;-41
2023/03/12 08:36:59;;;;;;;10.75;6.05;;;2.80;99.90;;;;;;4954229;28;20507;-41
2023/03/12 08:39:25;;;;;;;11.32;6.15;;;2.80;99.90;;;;;;4967082;28;20403;-41
2023/03/12 08:41:54;;;;;;;12.15;6.38;;;2.80;99.90;;;;;;4957310;28;20043;-41
2023/03/12 08:44:23;;;;;;;11.82;6.28;;;2.80;99.90;;;;;;4962804;28;20078;-41
2023/03/12 08:46:49;;;;;;;10.30;6.13;;;2.80;99.90;;;;;;4960427;28;20038;-41
2023/03/12 08:49:15;;;;;;;14.38;7.65;;;2.90;99.90;;;;;;4960306;28;20390;-41
2023/03/12 08:51:40;;;;;;;12.73;7.57;;;2.90;99.90;;;;;;4960728;28;20027;-41
2023/03/12 08:54:06;;;;;;;9.25;5.50;;;3.00;99.90;;;;;;4959579;28;20532;-41
2023/03/12 08:56:32;;;;;;;11.60;6.25;;;3.10;99.90;;;;;;4964120;28;20023;-41
2023/03/12 08:58:58;;;;;;;9.18;6.28;;;3.20;99.90;;;;;;4963611;28;20096;-41
2023/03/12 09:01:24;;;;;;;8.23;5.30;;;3.30;99.90;;;;;;4954666;28;20070;-41
2023/03/12 09:03:51;;;;;;;10.82;6.57;;;3.40;99.90;;;;;;4964251;28;20062;-41
2023/03/12 09:06:18;;;;;;;13.63;6.28;;;3.50;99.90;;;;;;4964009;28;20438;-41
2023/03/12 09:08:44;;;;;;;10.98;5.93;;;3.50;99.90;;;;;;4965334;28;20039;-41
2023/03/12 09:11:12;;;;;;;8.82;6.25;;;3.50;99.90;;;;;;4959207;28;20797;-41
2023/03/12 09:13:39;;;;;;;14.48;6.57;;;3.60;99.90;;;;;;4959754;28;20102;-41
2023/03/12 09:16:05;;;;;;;9.60;5.70;;;3.60;99.90;;;;;;4960169;28;20078;-41
2023/03/12 09:18:31;;;;;;;9.73;5.65;;;3.70;99.90;;;;;;4958596;28;20040;-41
2023/03/12 09:20:57;;;;;;;7.78;5.20;;;3.70;99.90;;;;;;4971464;28;20032;-40
2023/03/12 09:23:23;;;;;;;9.07;5.13;;;3.70;99.90;;;;;;4962381;28;20042;-39
2023/03/12 09:25:50;;;;;;;12.65;6.22;;;3.80;99.90;;;;;;4962836;28;20500;-39
2023/03/12 09:28:15;;;;;;;7.95;5.28;;;3.90;99.90;;;;;;4958877;28;20027;-39
2023/03/12 09:30:41;;;;;;;6.88;4.82;;;4.00;99.90;;;;;;4953753;28;20031;-41
2023/03/12 09:33:07;;;;;;;8.18;4.72;;;4.00;99.90;;;;;;4953587;28;20027;-41
2023/03/12 09:35:33;;;;;;;10.23;5.82;;;4.10;99.90;;;;;;4993019;28;20121;-41
2023/03/12 09:37:59;;;;;;;11.52;5.57;;;4.20;99.90;;;;;;4953867;28;20035;-41
2023/03/12 09:40:29;;;;;;;6.30;4.05;;;4.20;99.90;;;;;;4956484;28;20512;-41
2023/03/12 09:42:59;;;;;;;7.13;4.70;;;4.30;99.90;;;;;;4956002;28;20058;-39
2023/03/12 09:45:34;;;;;;;6.35;3.90;;;4.20;99.90;;;;;;4959832;28;20388;-39
2023/03/12 09:48:03;;;;;;;8.32;4.97;;;4.20;99.90;;;;;;4957799;28;20027;-39
2023/03/12 09:50:42;;;;;;;6.28;4.90;;;4.30;99.90;;;;;;4963981;28;20083;-40
2023/03/12 09:53:15;;;;;;;4.82;2.83;;;4.50;99.90;;;;;;4965440;28;20130;-39
2023/03/12 09:55:44;;;;;;;7.65;4.47;;;4.50;99.90;;;;;;4962003;28;20376;-39
2023/03/12 09:58:44;;;;;;;9.43;5.35;;;4.50;99.90;;;;;;4959875;28;20548;-40
2023/03/12 10:01:24;;;;;;;6.57;4.25;;;4.50;99.90;;;;;;4960211;28;20043;-39
2023/03/12 10:04:09;;;;;;;6.93;4.30;;;4.60;99.90;;;;;;4975458;28;21647;-40
2023/03/12 10:06:42;;;;;;;5.15;4.15;;;4.80;99.90;;;;;;4944756;28;20515;-39
2023/03/12 10:09:16;;;;;;;3.58;2.80;;;4.80;99.90;;;;;;4946554;28;21210;-39
2023/03/12 10:12:13;;;;;;;3.08;2.60;;;4.80;99.90;;;;;;4954269;28;20035;-39
2023/03/12 10:15:14;;;;;;;5.15;3.17;;;4.80;99.90;;;;;;4957809;28;20481;-39
2023/03/12 10:17:55;;;;;;;7.32;4.03;;;4.90;99.90;;;;;;4963509;28;20084;-40
2023/03/12 10:20:24;;;;;;;4.68;3.03;;;5.10;99.90;;;;;;4959330;28;20023;-40
2023/03/12 10:23:00;;;;;;;5.53;3.65;;;5.30;99.90;;;;;;4957514;28;20036;-40
2023/03/12 10:25:53;;;;;;;5.40;3.95;;;5.40;99.90;;;;;;4964314;28;20034;-41
2023/03/12 10:29:03;;;;;;;3.40;2.75;;;5.50;99.90;;;;;;4956165;28;20046;-40
2023/03/12 10:31:49;;;;;;;5.60;3.00;;;5.60;99.90;;;;;;4959648;28;20031;-40
2023/03/12 10:34:24;;;;;;;4.72;3.50;;;5.80;99.90;;;;;;4941520;28;20018;-39
2023/03/12 10:36:50;;;;;;;4.35;3.28;;;5.90;99.90;;;;;;4939748;28;20031;-41
2023/03/12 10:39:19;;;;;;;5.05;3.75;;;5.90;99.90;;;;;;4949018;28;20019;-40
2023/03/12 10:41:47;;;;;;;3.95;3.33;;;5.90;99.90;;;;;;4947422;28;20034;-41
2023/03/12 10:44:20;;;;;;;3.10;2.47;;;5.90;99.90;;;;;;4963395;28;22263;-40
2023/03/12 10:46:49;;;;;;;4.55;3.70;;;5.80;99.90;;;;;;4967129;28;20031;-41
2023/03/12 10:49:20;;;;;;;5.45;3.50;;;5.90;99.90;;;;;;4958832;28;20154;-40
2023/03/12 10:51:58;;;;;;;3.38;2.83;;;5.90;99.90;;;;;;4962765;28;20024;-41
2023/03/12 10:54:36;;;;;;;3.80;3.30;;;5.90;99.90;;;;;;4964958;28;20165;-40
2023/03/12 10:57:02;;;;;;;5.63;3.50;;;6.00;99.90;;;;;;4949513;28;20042;-41
2023/03/12 10:59:34;;;;;;;5.57;4.00;;;6.00;99.90;;;;;;4969349;28;20484;-41
2023/03/12 11:02:22;;;;;;;2.03;1.83;;;6.20;99.90;;;;;;4959171;28;20058;-41
2023/03/12 11:04:52;;;;;;;4.00;3.42;;;6.10;99.90;;;;;;4963911;28;20047;-41
2023/03/12 11:07:30;;;;;;;4.15;2.97;;;6.20;99.90;;;;;;4959622;28;20098;-41
2023/03/12 11:10:05;;;;;;;5.28;3.38;;;6.30;99.90;;;;;;4961341;28;20081;-41
2023/03/12 11:12:31;;;;;;;3.65;3.33;;;6.20;99.90;;;;;;4959375;28;20069;-41
2023/03/12 11:14:57;;;;;;;10.93;2.85;;;6.20;99.90;;;;;;4962163;28;20134;-41
2023/03/12 11:17:25;;;;;;;6.18;4.15;;;6.40;99.90;;;;;;4956370;28;20511;-41
2023/03/12 11:19:51;;;;;;;8.43;4.72;;;6.40;99.90;;;;;;4963575;28;20046;-39
2023/03/12 11:22:33;;;;;;;4.03;2.75;;;6.40;99.90;;;;;;4961137;28;20038;-41
2023/03/12 11:25:05;;;;;;;4.05;3.42;;;6.40;99.90;;;;;;4964192;28;20054;-40
2023/03/12 11:27:42;;;;;;;4.57;3.45;;;6.40;99.90;;;;;;4957716;28;20046;-41
2023/03/12 11:30:14;;;;;;;2.45;2.25;;;6.60;99.90;;;;;;4958677;28;20038;-41
2023/03/12 11:32:46;;;;;;;4.80;2.80;;;6.80;99.90;;;;;;4955777;28;20031;-41
2023/03/12 11:35:14;;;;;;;6.53;4.28;;;6.90;99.90;;;;;;4965770;28;20113;-41
2023/03/12 11:37:59;;;;;;;6.88;4.25;;;6.90;99.90;;;;;;4961419;28;20035;-41
2023/03/12 11:40:43;;;;;;;5.97;3.60;;;7.00;99.90;;;;;;4955753;28;20481;-40
2023/03/12 11:43:24;;;;;;;4.47;2.95;;;7.30;99.90;;;;;;4953301;28;20105;-40
2023/03/12 11:46:03;;;;;;;7.30;4.20;;;7.30;99.90;;;;;;4955088;28;20672;-40
2023/03/12 11:49:02;;;;;;;6.07;4.13;;;7.30;99.90;;;;;;4956711;28;20150;-40
2023/03/12 11:51:42;;;;;;;5.32;3.50;;;7.50;99.90;;;;;;4952303;28;20129;-40
2023/03/12 11:54:14;;;;;;;5.88;4.60;;;7.60;99.90;;;;;;4959156;28;20042;-40
2023/03/12 11:56:50;;;;;;;5.00;3.72;;;7.70;99.90;;;;;;4962016;28;20034;-40
2023/03/12 11:59:35;;;;;;;2.75;2.47;;;7.70;99.90;;;;;;4956645;28;20031;-41
2023/03/12 12:02:36;;;;;;;5.90;4.00;;;7.80;99.90;;;;;;4958076;28;20119;-40
2023/03/12 12:05:21;;;;;;;6.70;3.83;;;7.90;99.90;;;;;;5021568;28;20037;-40
2023/03/12 12:08:08;;;;;;;6.55;4.13;;;8.00;99.90;;;;;;4962920;28;20513;-40
2023/03/12 12:10:51;;;;;;;5.32;3.72;;;8.20;99.90;;;;;;4960668;28;20503;-40
2023/03/12 12:13:21;;;;;;;3.40;2.50;;;8.30;99.90;;;;;;4954468;28;20085;-40
2023/03/12 12:16:12;;;;;;;7.95;3.50;;;8.20;99.90;;;;;;4959110;28;20059;-40
2023/03/12 12:18:38;;;;;;;5.28;3.53;;;8.20;99.90;;;;;;4964159;28;20031;-40
2023/03/12 12:21:18;;;;;;;4.15;3.08;;;8.20;99.90;;;;;;4943662;28;20468;-40
2023/03/12 12:23:57;;;;;;;5.35;3.90;;;8.30;99.90;;;;;;4952933;28;20031;-39
2023/03/12 12:26:45;;;;;;;5.20;3.50;;;8.30;99.90;;;;;;4960219;28;20031;-40
2023/03/12 12:29:21;;;;;;;2.92;2.47;;;8.40;99.90;;;;;;4956819;28;20039;-40
2023/03/12 12:31:56;;;;;;;3.92;2.70;;;8.30;99.90;;;;;;4960592;28;20430;-40
2023/03/12 12:34:43;;;;;;;3.88;2.97;;;8.40;99.90;;;;;;4955395;28;20033;-40
2023/03/12 12:37:41;;;;;;;2.15;1.40;;;8.40;99.90;;;;;;4955971;28;20027;-40
2023/03/12 12:40:21;;;;;;;4.63;2.75;;;8.40;99.90;;;;;;4954923;28;20050;-40
2023/03/12 12:43:00;;;;;;;3.60;2.63;;;8.30;99.90;;;;;;4959942;28;20082;-40
2023/03/12 12:45:27;;;;;;;3.05;2.10;;;8.40;99.90;;;;;;4966007;28;20126;-40
2023/03/12 12:48:05;;;;;;;4.05;3.05;;;8.40;99.90;;;;;;4965725;28;20057;-40
2023/03/12 12:50:35;;;;;;;5.00;3.65;;;8.50;99.90;;;;;;4956626;28;20061;-40
2023/03/12 12:53:22;;;;;;;3.97;2.47;;;8.70;99.90;;;;;;4964281;28;20046;-40
2023/03/12 12:55:54;;;;;;;5.35;3.53;;;8.70;99.90;;;;;;4964850;28;20511;-40
2023/03/12 12:58:28;;;;;;;3.65;2.38;;;8.80;99.90;;;;;;4961989;28;20038;-38
2023/03/12 13:00:57;;;;;;;3.95;2.45;;;8.90;99.90;;;;;;4960739;28;20047;-37